Time;durP1;ratioP1;P1;durP2;ratioP2;P2;SDS_P1;SDS_P2;PMS_P1;PMS_P2;Temp;Humidity;BMP_temperature;BMP_pressure;BME280_temperature;BME280_humidity;BME280_pressure;Samples;Min_cycle;Max_cycle;Signal;HPM_P1;HPM_P2
2023/03/13 00:00:13;;;;;;;12.83;3.63;;;;;;;;;;520033;28;1226;-69
2023/03/13 00:00:28;;;;;;;12.95;3.63;;;;;;;;;;520746;28;1295;-69
2023/03/13 00:00:43;;;;;;;15.60;3.77;;;;;;;;;;523053;28;1208;-69
2023/03/13 00:01:00;;;;;;;16.75;3.97;;;;;;;;;;518626;28;1361;-69
2023/03/13 00:01:28;;;;;;;15.57;4.05;;;;;;;;;;520804;28;1574;-69
2023/03/13 00:01:48;;;;;;;14.98;4.13;;;;;;;;;;517807;28;1406;-69
2023/03/13 00:02:03;;;;;;;16.60;4.05;;;;;;;;;;517272;28;1275;-69
2023/03/13 00:02:18;;;;;;;17.33;4.20;;;;;;;;;;518850;28;1433;-69
2023/03/13 00:02:33;;;;;;;16.13;4.03;;;;;;;;;;516904;28;1246;-69
2023/03/13 00:02:49;;;;;;;14.83;3.93;;;;;;;;;;517577;28;1317;-69
2023/03/13 00:03:04;;;;;;;14.47;3.83;;;;;;;;;;521985;28;1190;-70
2023/03/13 00:03:20;;;;;;;14.83;3.80;;;;;;;;;;521598;28;1334;-69
2023/03/13 00:03:35;;;;;;;16.50;4.00;;;;;;;;;;523660;28;1947;-70
2023/03/13 00:03:50;;;;;;;17.03;4.20;;;;;;;;;;523762;28;1157;-69
2023/03/13 00:04:06;;;;;;;15.85;4.00;;;;;;;;;;518783;28;1351;-69
2023/03/13 00:04:21;;;;;;;12.23;3.23;;;;;;;;;;520027;28;1228;-70
2023/03/13 00:04:36;;;;;;;10.73;3.10;;;;;;;;;;519769;28;1358;-69
2023/03/13 00:04:52;;;;;;;11.68;3.53;;;;;;;;;;521844;28;1236;-69
2023/03/13 00:05:07;;;;;;;9.63;3.20;;;;;;;;;;519076;28;1243;-69
2023/03/13 00:05:23;;;;;;;10.90;3.00;;;;;;;;;;518722;28;1307;-70
2023/03/13 00:05:38;;;;;;;13.47;3.37;;;;;;;;;;519907;28;1564;-69
2023/03/13 00:05:57;;;;;;;15.90;3.93;;;;;;;;;;517222;28;1315;-69
2023/03/13 00:06:13;;;;;;;14.82;3.90;;;;;;;;;;517702;28;1250;-69
2023/03/13 00:06:34;;;;;;;13.65;3.85;;;;;;;;;;517528;28;1134;-69
2023/03/13 00:06:49;;;;;;;14.15;3.90;;;;;;;;;;514269;28;1426;-69
2023/03/13 00:07:04;;;;;;;16.05;3.92;;;;;;;;;;519660;28;1244;-69
2023/03/13 00:07:20;;;;;;;16.40;3.97;;;;;;;;;;519527;28;1342;-69
2023/03/13 00:07:35;;;;;;;17.33;4.30;;;;;;;;;;517583;28;1351;-69
2023/03/13 00:07:50;;;;;;;17.20;4.30;;;;;;;;;;519961;28;1433;-69
2023/03/13 00:08:06;;;;;;;14.73;3.88;;;;;;;;;;517322;28;1253;-70
2023/03/13 00:08:21;;;;;;;15.37;4.00;;;;;;;;;;516016;28;1537;-69
2023/03/13 00:08:37;;;;;;;18.45;4.38;;;;;;;;;;515915;28;1406;-69
2023/03/13 00:08:53;;;;;;;17.73;4.23;;;;;;;;;;518092;28;1430;-69
2023/03/13 00:09:11;;;;;;;15.43;3.85;;;;;;;;;;516923;28;1316;-69
2023/03/13 00:09:26;;;;;;;14.80;3.85;;;;;;;;;;517581;28;1463;-69
2023/03/13 00:09:41;;;;;;;15.43;4.03;;;;;;;;;;519682;28;1138;-70
2023/03/13 00:09:57;;;;;;;14.83;3.90;;;;;;;;;;519655;28;1321;-70
2023/03/13 00:10:12;;;;;;;15.23;3.97;;;;;;;;;;517035;28;1326;-69
2023/03/13 00:10:27;;;;;;;14.93;4.10;;;;;;;;;;518813;28;1353;-70
2023/03/13 00:10:43;;;;;;;13.23;3.92;;;;;;;;;;518410;28;1145;-69
2023/03/13 00:11:02;;;;;;;14.87;4.03;;;;;;;;;;519057;28;1215;-69
2023/03/13 00:11:18;;;;;;;16.35;4.20;;;;;;;;;;518964;28;1120;-69
2023/03/13 00:11:34;;;;;;;15.87;3.97;;;;;;;;;;518185;28;1245;-69
2023/03/13 00:11:49;;;;;;;14.60;3.60;;;;;;;;;;521533;28;1271;-69
2023/03/13 00:12:05;;;;;;;14.13;3.60;;;;;;;;;;519744;28;1269;-69
2023/03/13 00:12:20;;;;;;;15.77;3.90;;;;;;;;;;516564;28;1293;-69
2023/03/13 00:12:35;;;;;;;15.83;4.20;;;;;;;;;;517477;28;1201;-69
2023/03/13 00:12:50;;;;;;;13.63;3.70;;;;;;;;;;519633;28;1232;-69
2023/03/13 00:13:07;;;;;;;12.40;3.33;;;;;;;;;;518576;28;1111;-69
2023/03/13 00:13:22;;;;;;;11.73;3.38;;;;;;;;;;517686;28;1275;-69
2023/03/13 00:13:38;;;;;;;12.25;3.50;;;;;;;;;;516507;28;1209;-69
2023/03/13 00:13:55;;;;;;;13.23;3.50;;;;;;;;;;517377;28;1374;-68
2023/03/13 00:14:10;;;;;;;17.45;3.75;;;;;;;;;;516275;28;1434;-68
2023/03/13 00:14:26;;;;;;;17.70;3.73;;;;;;;;;;519208;28;1367;-69
2023/03/13 00:14:41;;;;;;;16.30;3.70;;;;;;;;;;520238;28;1187;-68
2023/03/13 00:14:57;;;;;;;17.45;4.00;;;;;;;;;;519521;28;1242;-69
2023/03/13 00:15:12;;;;;;;19.80;4.23;;;;;;;;;;520279;28;1397;-69
2023/03/13 00:15:27;;;;;;;18.70;4.05;;;;;;;;;;517212;28;1325;-69
2023/03/13 00:15:42;;;;;;;16.00;3.70;;;;;;;;;;516930;28;1608;-69
2023/03/13 00:16:03;;;;;;;15.37;3.60;;;;;;;;;;518029;28;1539;-69
2023/03/13 00:16:18;;;;;;;14.50;3.60;;;;;;;;;;519744;28;1544;-69
2023/03/13 00:16:36;;;;;;;16.00;3.80;;;;;;;;;;520244;28;1236;-69
2023/03/13 00:16:51;;;;;;;19.40;3.92;;;;;;;;;;517956;28;1580;-69
2023/03/13 00:17:06;;;;;;;15.70;3.63;;;;;;;;;;519493;28;1157;-69
2023/03/13 00:17:22;;;;;;;13.23;3.47;;;;;;;;;;520404;28;1439;-69
2023/03/13 00:17:37;;;;;;;14.47;3.77;;;;;;;;;;517797;28;1250;-68
2023/03/13 00:17:52;;;;;;;14.32;3.75;;;;;;;;;;515206;28;1115;-69
2023/03/13 00:18:08;;;;;;;14.03;3.67;;;;;;;;;;519742;28;1180;-68
2023/03/13 00:18:23;;;;;;;13.23;3.60;;;;;;;;;;520008;28;1598;-69
2023/03/13 00:18:43;;;;;;;13.98;3.70;;;;;;;;;;517959;28;1255;-69
2023/03/13 00:18:58;;;;;;;13.68;3.55;;;;;;;;;;517631;28;1373;-68
2023/03/13 00:19:14;;;;;;;12.50;3.45;;;;;;;;;;518687;28;1390;-70
2023/03/13 00:19:29;;;;;;;13.57;3.50;;;;;;;;;;517926;28;1781;-68
2023/03/13 00:19:44;;;;;;;14.47;3.57;;;;;;;;;;519409;28;1350;-68
2023/03/13 00:20:00;;;;;;;14.17;3.53;;;;;;;;;;515732;28;1305;-69
2023/03/13 00:20:16;;;;;;;13.50;3.47;;;;;;;;;;516155;28;1335;-69
2023/03/13 00:20:31;;;;;;;15.05;3.85;;;;;;;;;;516954;28;1537;-69
2023/03/13 00:20:47;;;;;;;14.23;3.70;;;;;;;;;;519256;28;1125;-68
2023/03/13 00:21:08;;;;;;;12.32;3.42;;;;;;;;;;519031;28;1540;-69
2023/03/13 00:21:25;;;;;;;17.58;4.00;;;;;;;;;;519425;28;1414;-69
2023/03/13 00:21:40;;;;;;;16.60;3.83;;;;;;;;;;518039;28;1436;-70
2023/03/13 00:21:56;;;;;;;16.07;3.57;;;;;;;;;;518735;28;977;-70
2023/03/13 00:22:11;;;;;;;16.23;3.57;;;;;;;;;;521302;28;1219;-69
2023/03/13 00:22:26;;;;;;;16.20;3.63;;;;;;;;;;520246;28;1421;-69
2023/03/13 00:22:42;;;;;;;17.23;3.80;;;;;;;;;;521189;28;1331;-70
2023/03/13 00:22:57;;;;;;;16.37;3.80;;;;;;;;;;521683;28;1450;-69
2023/03/13 00:23:12;;;;;;;15.68;3.85;;;;;;;;;;518914;28;1093;-69
2023/03/13 00:23:28;;;;;;;16.70;4.07;;;;;;;;;;518612;28;1217;-69
2023/03/13 00:23:44;;;;;;;15.32;3.83;;;;;;;;;;518877;28;1981;-70
2023/03/13 00:24:00;;;;;;;14.48;3.75;;;;;;;;;;519212;28;1273;-69
2023/03/13 00:24:15;;;;;;;15.40;3.87;;;;;;;;;;516743;28;1445;-70
2023/03/13 00:24:32;;;;;;;13.17;3.37;;;;;;;;;;519692;28;1502;-69
2023/03/13 00:24:48;;;;;;;13.38;3.40;;;;;;;;;;519506;28;1192;-70
2023/03/13 00:25:03;;;;;;;14.80;3.67;;;;;;;;;;519553;28;1251;-69
2023/03/13 00:25:19;;;;;;;15.20;3.70;;;;;;;;;;517366;28;1216;-70
2023/03/13 00:25:34;;;;;;;14.05;3.60;;;;;;;;;;519557;28;1240;-68
2023/03/13 00:25:59;;;;;;;13.17;3.67;;;;;;;;;;520048;28;1298;-70
2023/03/13 00:26:17;;;;;;;15.10;3.83;;;;;;;;;;518956;28;1274;-69
2023/03/13 00:26:32;;;;;;;16.88;3.92;;;;;;;;;;520770;28;1286;-69
2023/03/13 00:26:48;;;;;;;16.60;3.80;;;;;;;;;;521585;28;1006;-69
2023/03/13 00:27:04;;;;;;;16.75;3.53;;;;;;;;;;523244;28;1176;-70
2023/03/13 00:27:19;;;;;;;18.75;3.92;;;;;;;;;;521940;28;1301;-70
2023/03/13 00:27:34;;;;;;;17.37;4.20;;;;;;;;;;523783;28;1327;-69
2023/03/13 00:27:50;;;;;;;14.13;3.90;;;;;;;;;;521010;28;1282;-69
2023/03/13 00:28:05;;;;;;;13.43;3.60;;;;;;;;;;519179;28;1224;-69
2023/03/13 00:28:20;;;;;;;11.20;3.07;;;;;;;;;;521755;28;1409;-69
2023/03/13 00:28:37;;;;;;;10.10;3.03;;;;;;;;;;518721;28;1294;-68
2023/03/13 00:28:53;;;;;;;12.88;3.55;;;;;;;;;;519412;28;1300;-69
2023/03/13 00:29:09;;;;;;;14.32;3.80;;;;;;;;;;519550;28;1437;-69
2023/03/13 00:29:24;;;;;;;15.65;3.60;;;;;;;;;;517353;28;1456;-69
2023/03/13 00:29:39;;;;;;;15.53;3.37;;;;;;;;;;520551;28;1291;-69
2023/03/13 00:29:55;;;;;;;14.80;3.60;;;;;;;;;;520044;28;1286;-69
2023/03/13 00:30:10;;;;;;;14.13;3.92;;;;;;;;;;520016;28;1232;-69
2023/03/13 00:30:26;;;;;;;15.17;4.00;;;;;;;;;;518469;28;1139;-69
2023/03/13 00:30:41;;;;;;;17.60;4.30;;;;;;;;;;518390;28;1110;-69
2023/03/13 00:31:07;;;;;;;16.27;4.20;;;;;;;;;;519178;28;1150;-69
2023/03/13 00:31:25;;;;;;;15.13;3.70;;;;;;;;;;521866;28;1402;-69
2023/03/13 00:31:40;;;;;;;15.95;3.60;;;;;;;;;;521373;28;1513;-69
2023/03/13 00:31:55;;;;;;;15.63;3.60;;;;;;;;;;520860;28;1329;-70
2023/03/13 00:32:11;;;;;;;15.15;3.60;;;;;;;;;;522279;28;1286;-69
2023/03/13 00:32:26;;;;;;;16.93;3.80;;;;;;;;;;521311;28;1208;-69
2023/03/13 00:32:44;;;;;;;15.57;3.80;;;;;;;;;;519304;28;1295;-70
2023/03/13 00:33:00;;;;;;;12.93;3.40;;;;;;;;;;518528;28;1366;-70
2023/03/13 00:33:15;;;;;;;11.53;3.30;;;;;;;;;;519587;28;1362;-70
2023/03/13 00:33:34;;;;;;;12.13;3.43;;;;;;;;;;519975;28;1306;-70
2023/03/13 00:33:53;;;;;;;13.93;3.50;;;;;;;;;;518506;28;1324;-70
2023/03/13 00:34:09;;;;;;;13.40;3.65;;;;;;;;;;519583;28;1674;-70
2023/03/13 00:34:27;;;;;;;11.00;3.47;;;;;;;;;;519406;28;1346;-69
2023/03/13 00:34:42;;;;;;;11.88;3.30;;;;;;;;;;518088;28;967;-70
2023/03/13 00:34:58;;;;;;;15.93;3.67;;;;;;;;;;519634;28;1162;-70
2023/03/13 00:35:14;;;;;;;17.07;3.87;;;;;;;;;;521700;28;1238;-70
2023/03/13 00:35:29;;;;;;;14.68;3.60;;;;;;;;;;519657;28;1204;-70
2023/03/13 00:35:45;;;;;;;15.20;3.75;;;;;;;;;;518211;28;1281;-70
2023/03/13 00:36:03;;;;;;;13.77;3.60;;;;;;;;;;517417;28;1179;-70
2023/03/13 00:36:26;;;;;;;11.52;3.53;;;;;;;;;;518487;28;1475;-70
2023/03/13 00:36:42;;;;;;;15.02;3.80;;;;;;;;;;516579;28;1261;-70
2023/03/13 00:36:57;;;;;;;16.17;3.65;;;;;;;;;;520108;28;1138;-70
2023/03/13 00:37:12;;;;;;;15.50;3.60;;;;;;;;;;521153;28;1193;-70
2023/03/13 00:37:27;;;;;;;14.27;3.40;;;;;;;;;;521302;28;1207;-70
2023/03/13 00:37:43;;;;;;;15.55;3.70;;;;;;;;;;518851;28;1219;-70
2023/03/13 00:37:58;;;;;;;15.00;3.73;;;;;;;;;;516199;28;1181;-70
2023/03/13 00:38:13;;;;;;;13.77;3.63;;;;;;;;;;517583;28;1172;-70
2023/03/13 00:38:29;;;;;;;14.63;3.83;;;;;;;;;;517334;28;1421;-70
2023/03/13 00:38:45;;;;;;;13.87;3.87;;;;;;;;;;515104;28;1188;-70
2023/03/13 00:39:01;;;;;;;13.98;3.67;;;;;;;;;;516655;28;1495;-70
2023/03/13 00:39:16;;;;;;;14.93;3.50;;;;;;;;;;515539;28;1189;-70
2023/03/13 00:39:32;;;;;;;14.90;3.67;;;;;;;;;;514597;28;1252;-70
2023/03/13 00:39:47;;;;;;;14.73;3.83;;;;;;;;;;518540;28;1418;-70
2023/03/13 00:40:04;;;;;;;15.77;3.80;;;;;;;;;;516230;28;1358;-70
2023/03/13 00:40:19;;;;;;;16.50;3.72;;;;;;;;;;515641;28;1292;-70
2023/03/13 00:40:35;;;;;;;14.23;3.53;;;;;;;;;;515581;28;1019;-70
2023/03/13 00:40:58;;;;;;;11.18;3.20;;;;;;;;;;518211;28;1355;-70
2023/03/13 00:41:16;;;;;;;13.23;3.45;;;;;;;;;;517582;28;1270;-70
2023/03/13 00:41:32;;;;;;;14.05;3.63;;;;;;;;;;514790;28;1408;-70
2023/03/13 00:41:47;;;;;;;14.50;3.70;;;;;;;;;;515631;28;1371;-69
2023/03/13 00:42:03;;;;;;;14.93;3.72;;;;;;;;;;517214;28;1360;-69
2023/03/13 00:42:18;;;;;;;13.48;3.40;;;;;;;;;;518884;28;1255;-70
2023/03/13 00:42:35;;;;;;;14.60;3.67;;;;;;;;;;515615;28;1238;-70
2023/03/13 00:42:50;;;;;;;13.80;3.58;;;;;;;;;;516538;28;1326;-69
2023/03/13 00:43:05;;;;;;;10.10;2.90;;;;;;;;;;517531;28;1449;-70
2023/03/13 00:43:21;;;;;;;12.07;3.10;;;;;;;;;;517823;28;1256;-70
2023/03/13 00:43:36;;;;;;;14.33;3.40;;;;;;;;;;519621;28;1971;-70
2023/03/13 00:43:52;;;;;;;14.33;3.30;;;;;;;;;;517789;28;1165;-70
2023/03/13 00:44:07;;;;;;;14.40;3.38;;;;;;;;;;515860;28;1203;-70
2023/03/13 00:44:22;;;;;;;12.25;3.40;;;;;;;;;;517867;28;1676;-69
2023/03/13 00:44:38;;;;;;;9.77;2.90;;;;;;;;;;519730;28;1417;-69
2023/03/13 00:44:53;;;;;;;11.63;2.97;;;;;;;;;;519395;28;1260;-70
2023/03/13 00:45:09;;;;;;;14.30;3.47;;;;;;;;;;519020;28;1513;-70
2023/03/13 00:45:25;;;;;;;12.30;3.30;;;;;;;;;;517938;28;1225;-70
2023/03/13 00:45:40;;;;;;;12.82;3.20;;;;;;;;;;517101;28;1299;-70
2023/03/13 00:45:57;;;;;;;13.90;3.30;;;;;;;;;;519094;28;1264;-70
2023/03/13 00:46:14;;;;;;;12.48;3.40;;;;;;;;;;517203;28;1390;-70
2023/03/13 00:46:30;;;;;;;12.57;3.22;;;;;;;;;;515754;28;1464;-70
2023/03/13 00:46:45;;;;;;;14.23;3.53;;;;;;;;;;517670;28;1471;-70
2023/03/13 00:47:00;;;;;;;14.27;3.60;;;;;;;;;;519320;28;1158;-70
2023/03/13 00:47:16;;;;;;;14.00;3.60;;;;;;;;;;518576;28;1224;-70
2023/03/13 00:47:31;;;;;;;13.33;3.70;;;;;;;;;;518390;28;1111;-69
2023/03/13 00:47:48;;;;;;;13.50;3.53;;;;;;;;;;519755;28;1354;-69
2023/03/13 00:48:04;;;;;;;13.82;3.58;;;;;;;;;;517464;28;1408;-70
2023/03/13 00:48:20;;;;;;;14.27;3.60;;;;;;;;;;519100;28;1200;-69
2023/03/13 00:48:35;;;;;;;16.20;3.60;;;;;;;;;;518418;28;1212;-70
2023/03/13 00:48:51;;;;;;;13.93;3.50;;;;;;;;;;517766;28;1314;-70
2023/03/13 00:49:06;;;;;;;13.47;3.43;;;;;;;;;;515369;28;1269;-69
2023/03/13 00:49:22;;;;;;;14.32;3.35;;;;;;;;;;517138;28;1027;-69
2023/03/13 00:49:37;;;;;;;14.17;3.53;;;;;;;;;;519623;28;1226;-69
2023/03/13 00:49:52;;;;;;;13.70;3.50;;;;;;;;;;518729;28;1203;-70
2023/03/13 00:50:08;;;;;;;13.52;3.30;;;;;;;;;;520471;28;1346;-70
2023/03/13 00:50:23;;;;;;;14.23;3.53;;;;;;;;;;521930;28;1282;-70
2023/03/13 00:50:38;;;;;;;16.20;3.72;;;;;;;;;;521056;28;1384;-70
2023/03/13 00:50:54;;;;;;;17.30;3.90;;;;;;;;;;518992;28;1340;-70
2023/03/13 00:51:10;;;;;;;14.40;3.60;;;;;;;;;;514501;28;1265;-70
2023/03/13 00:51:27;;;;;;;13.02;3.40;;;;;;;;;;515274;28;1391;-70
2023/03/13 00:51:42;;;;;;;13.55;3.40;;;;;;;;;;517862;28;1421;-70
2023/03/13 00:51:58;;;;;;;14.33;3.40;;;;;;;;;;517585;28;1165;-69
2023/03/13 00:52:13;;;;;;;13.67;3.37;;;;;;;;;;519719;28;1224;-70
2023/03/13 00:52:28;;;;;;;13.55;3.50;;;;;;;;;;519263;28;1303;-70
2023/03/13 00:52:44;;;;;;;14.00;3.47;;;;;;;;;;517745;28;1355;-69
2023/03/13 00:52:59;;;;;;;13.97;3.33;;;;;;;;;;519200;28;1201;-70
2023/03/13 00:53:14;;;;;;;15.35;3.53;;;;;;;;;;520781;28;1405;-70
2023/03/13 00:53:30;;;;;;;15.10;3.77;;;;;;;;;;520174;28;1124;-70
2023/03/13 00:53:46;;;;;;;13.18;3.60;;;;;;;;;;520202;28;1423;-70
2023/03/13 00:54:02;;;;;;;12.50;3.43;;;;;;;;;;521199;28;1405;-69
2023/03/13 00:54:18;;;;;;;13.60;3.47;;;;;;;;;;519620;28;1433;-69
2023/03/13 00:54:33;;;;;;;14.63;3.57;;;;;;;;;;516730;28;1212;-70
2023/03/13 00:54:48;;;;;;;11.65;3.35;;;;;;;;;;516723;28;1165;-69
2023/03/13 00:55:05;;;;;;;10.87;3.20;;;;;;;;;;519936;28;1271;-70
2023/03/13 00:55:20;;;;;;;14.27;3.35;;;;;;;;;;516609;28;1315;-70
2023/03/13 00:55:36;;;;;;;13.90;3.37;;;;;;;;;;518915;28;1207;-70
2023/03/13 00:55:57;;;;;;;13.73;3.63;;;;;;;;;;520854;28;1342;-69
2023/03/13 00:56:15;;;;;;;14.70;3.78;;;;;;;;;;519335;28;1359;-70
2023/03/13 00:56:30;;;;;;;13.35;3.53;;;;;;;;;;519295;28;1473;-70
2023/03/13 00:56:45;;;;;;;12.98;3.35;;;;;;;;;;519414;28;1212;-70
2023/03/13 00:57:00;;;;;;;13.07;3.40;;;;;;;;;;518520;28;1339;-70
2023/03/13 00:57:16;;;;;;;14.17;3.47;;;;;;;;;;521787;28;1204;-70
2023/03/13 00:57:31;;;;;;;16.10;3.53;;;;;;;;;;519345;28;1102;-70
2023/03/13 00:57:46;;;;;;;14.60;3.45;;;;;;;;;;521661;28;1392;-69
2023/03/13 00:58:02;;;;;;;15.20;3.60;;;;;;;;;;519723;28;1357;-70
2023/03/13 00:58:17;;;;;;;15.83;3.60;;;;;;;;;;518402;28;1128;-70
2023/03/13 00:58:35;;;;;;;13.90;3.28;;;;;;;;;;516710;28;1121;-70
2023/03/13 00:58:51;;;;;;;13.90;3.33;;;;;;;;;;517168;28;1261;-70
2023/03/13 00:59:06;;;;;;;13.03;3.27;;;;;;;;;;515665;28;1583;-70
2023/03/13 00:59:21;;;;;;;13.45;3.38;;;;;;;;;;517855;28;1270;-70
2023/03/13 00:59:37;;;;;;;14.40;3.57;;;;;;;;;;520187;28;1360;-69
2023/03/13 00:59:52;;;;;;;13.47;3.30;;;;;;;;;;517170;28;1156;-70
2023/03/13 01:00:08;;;;;;;14.57;3.50;;;;;;;;;;519383;28;1355;-70
2023/03/13 01:00:23;;;;;;;14.38;3.50;;;;;;;;;;521360;28;1246;-69
2023/03/13 01:00:38;;;;;;;12.67;3.23;;;;;;;;;;519001;28;1280;-70
2023/03/13 01:00:54;;;;;;;14.77;3.70;;;;;;;;;;518963;28;1196;-69
2023/03/13 01:01:16;;;;;;;16.08;3.65;;;;;;;;;;517329;28;1228;-70
2023/03/13 01:01:34;;;;;;;14.65;3.40;;;;;;;;;;519451;28;1247;-70
2023/03/13 01:01:49;;;;;;;14.40;3.50;;;;;;;;;;518565;28;1529;-70
2023/03/13 01:02:05;;;;;;;12.27;3.33;;;;;;;;;;520119;28;1539;-70
2023/03/13 01:02:20;;;;;;;13.82;3.70;;;;;;;;;;519880;28;1474;-70
2023/03/13 01:02:40;;;;;;;15.13;3.70;;;;;;;;;;519163;28;1230;-70
2023/03/13 01:02:56;;;;;;;14.23;3.40;;;;;;;;;;518179;28;1459;-70
2023/03/13 01:03:11;;;;;;;14.93;3.72;;;;;;;;;;520616;28;1364;-70
2023/03/13 01:03:27;;;;;;;15.17;4.00;;;;;;;;;;519391;28;1383;-70
2023/03/13 01:03:45;;;;;;;13.85;3.85;;;;;;;;;;518998;28;1910;-70
2023/03/13 01:04:06;;;;;;;13.88;3.78;;;;;;;;;;518381;28;1285;-70
2023/03/13 01:04:21;;;;;;;13.52;3.63;;;;;;;;;;518657;28;1339;-70
2023/03/13 01:04:36;;;;;;;11.07;3.27;;;;;;;;;;517691;28;1349;-69
2023/03/13 01:04:53;;;;;;;9.73;2.87;;;;;;;;;;515800;28;1510;-70
2023/03/13 01:05:08;;;;;;;11.93;3.20;;;;;;;;;;517364;28;1477;-70
2023/03/13 01:05:24;;;;;;;14.05;3.40;;;;;;;;;;516495;28;1410;-70
2023/03/13 01:05:39;;;;;;;13.93;3.50;;;;;;;;;;518954;28;1189;-70
2023/03/13 01:05:59;;;;;;;13.03;3.40;;;;;;;;;;519075;28;1160;-70
2023/03/13 01:06:17;;;;;;;12.75;3.20;;;;;;;;;;519449;28;1360;-70
2023/03/13 01:06:35;;;;;;;13.18;3.50;;;;;;;;;;517219;28;1379;-70
2023/03/13 01:06:50;;;;;;;16.17;3.75;;;;;;;;;;518103;28;1670;-69
2023/03/13 01:07:06;;;;;;;15.37;3.57;;;;;;;;;;517489;28;1186;-69
2023/03/13 01:07:21;;;;;;;12.13;3.33;;;;;;;;;;517360;28;1093;-70
2023/03/13 01:07:36;;;;;;;12.53;3.40;;;;;;;;;;517571;28;1366;-69
2023/03/13 01:07:51;;;;;;;14.53;3.70;;;;;;;;;;519278;28;1185;-69
2023/03/13 01:08:07;;;;;;;14.00;3.72;;;;;;;;;;517688;28;1164;-70
2023/03/13 01:08:22;;;;;;;12.80;3.40;;;;;;;;;;516546;28;1420;-69
2023/03/13 01:08:38;;;;;;;11.87;3.00;;;;;;;;;;517136;28;1221;-70
2023/03/13 01:08:54;;;;;;;12.00;2.97;;;;;;;;;;515521;28;1159;-69
2023/03/13 01:09:12;;;;;;;13.90;3.25;;;;;;;;;;515533;28;1322;-70
2023/03/13 01:09:27;;;;;;;14.25;3.40;;;;;;;;;;517838;28;1287;-70
2023/03/13 01:09:42;;;;;;;14.63;3.40;;;;;;;;;;517088;28;1226;-70
2023/03/13 01:09:58;;;;;;;12.63;3.20;;;;;;;;;;516977;28;1107;-69
2023/03/13 01:10:13;;;;;;;12.80;3.30;;;;;;;;;;519680;28;1254;-70
2023/03/13 01:10:28;;;;;;;14.17;3.50;;;;;;;;;;518995;28;1308;-69
2023/03/13 01:10:43;;;;;;;13.47;3.57;;;;;;;;;;520283;28;1466;-69
2023/03/13 01:11:05;;;;;;;11.32;3.58;;;;;;;;;;518145;28;1168;-70
2023/03/13 01:11:23;;;;;;;11.93;3.03;;;;;;;;;;519029;28;990;-69
2023/03/13 01:11:40;;;;;;;13.40;3.10;;;;;;;;;;518867;28;1409;-69
2023/03/13 01:11:55;;;;;;;12.25;3.30;;;;;;;;;;519181;28;1263;-69
2023/03/13 01:12:10;;;;;;;11.27;2.90;;;;;;;;;;519329;28;1333;-69
2023/03/13 01:12:25;;;;;;;12.47;3.03;;;;;;;;;;516467;28;1210;-70
2023/03/13 01:12:41;;;;;;;10.93;3.05;;;;;;;;;;517600;28;1162;-70
2023/03/13 01:12:56;;;;;;;10.33;2.93;;;;;;;;;;517461;28;1353;-70
2023/03/13 01:13:11;;;;;;;12.50;3.40;;;;;;;;;;516568;28;1353;-69
2023/03/13 01:13:29;;;;;;;13.20;3.50;;;;;;;;;;517356;28;1423;-69
2023/03/13 01:13:45;;;;;;;12.13;3.25;;;;;;;;;;517549;28;1303;-69
2023/03/13 01:14:05;;;;;;;11.77;3.20;;;;;;;;;;514653;28;1318;-70
2023/03/13 01:14:20;;;;;;;13.60;3.30;;;;;;;;;;516510;28;1338;-69
2023/03/13 01:14:35;;;;;;;12.47;2.90;;;;;;;;;;517860;28;1183;-70
2023/03/13 01:14:51;;;;;;;12.40;2.95;;;;;;;;;;517502;28;1191;-69
2023/03/13 01:15:06;;;;;;;13.37;3.27;;;;;;;;;;519458;28;1175;-69
2023/03/13 01:15:23;;;;;;;13.38;3.22;;;;;;;;;;520119;28;1410;-69
2023/03/13 01:15:38;;;;;;;11.30;2.92;;;;;;;;;;518510;28;1463;-69
2023/03/13 01:15:53;;;;;;;11.87;3.10;;;;;;;;;;517674;28;1287;-70
2023/03/13 01:16:11;;;;;;;12.80;3.22;;;;;;;;;;516938;28;1437;-69
2023/03/13 01:16:29;;;;;;;13.70;3.45;;;;;;;;;;518667;28;1432;-69
2023/03/13 01:16:45;;;;;;;13.80;3.50;;;;;;;;;;517819;28;1299;-69
2023/03/13 01:17:00;;;;;;;13.20;3.40;;;;;;;;;;515363;28;1260;-69
2023/03/13 01:17:15;;;;;;;11.67;3.13;;;;;;;;;;517737;28;1285;-69
2023/03/13 01:17:30;;;;;;;10.15;2.95;;;;;;;;;;518527;28;1192;-69
2023/03/13 01:17:46;;;;;;;12.67;3.20;;;;;;;;;;516011;28;1194;-69
2023/03/13 01:18:01;;;;;;;12.93;3.20;;;;;;;;;;518776;28;1329;-69
2023/03/13 01:18:18;;;;;;;10.20;3.00;;;;;;;;;;519306;28;1239;-69
2023/03/13 01:18:35;;;;;;;11.45;3.00;;;;;;;;;;519376;28;1428;-69
2023/03/13 01:18:55;;;;;;;11.35;3.17;;;;;;;;;;521588;28;1246;-70
2023/03/13 01:19:13;;;;;;;10.75;2.85;;;;;;;;;;519377;28;1342;-69
2023/03/13 01:19:28;;;;;;;10.35;2.80;;;;;;;;;;521322;28;1476;-70
2023/03/13 01:19:44;;;;;;;12.88;3.08;;;;;;;;;;521134;28;1295;-70
2023/03/13 01:19:59;;;;;;;14.93;3.40;;;;;;;;;;517968;28;1283;-69
2023/03/13 01:20:15;;;;;;;13.63;3.37;;;;;;;;;;518402;28;1460;-69
2023/03/13 01:20:30;;;;;;;14.27;3.55;;;;;;;;;;515976;28;1624;-69
2023/03/13 01:20:46;;;;;;;14.32;3.53;;;;;;;;;;516684;28;1249;-69
2023/03/13 01:21:01;;;;;;;11.93;2.90;;;;;;;;;;516064;28;1280;-69
2023/03/13 01:21:18;;;;;;;11.90;2.85;;;;;;;;;;516129;28;1264;-69
2023/03/13 01:21:34;;;;;;;10.95;2.95;;;;;;;;;;514030;28;1269;-69
2023/03/13 01:21:49;;;;;;;9.57;2.97;;;;;;;;;;515234;28;1185;-69
2023/03/13 01:22:05;;;;;;;9.13;2.80;;;;;;;;;;517201;28;1397;-69
2023/03/13 01:22:20;;;;;;;8.77;2.60;;;;;;;;;;519282;28;1356;-69
2023/03/13 01:22:35;;;;;;;10.80;3.10;;;;;;;;;;520931;28;1248;-69
2023/03/13 01:22:50;;;;;;;13.43;3.50;;;;;;;;;;520377;28;1066;-69
2023/03/13 01:23:06;;;;;;;13.47;3.40;;;;;;;;;;521019;28;1145;-69
2023/03/13 01:23:21;;;;;;;13.57;3.30;;;;;;;;;;518195;28;1241;-70
2023/03/13 01:23:37;;;;;;;13.32;3.30;;;;;;;;;;516501;28;2155;-69
2023/03/13 01:23:53;;;;;;;12.97;3.40;;;;;;;;;;517558;28;1506;-69
2023/03/13 01:24:08;;;;;;;13.50;3.40;;;;;;;;;;515973;28;1283;-69
2023/03/13 01:24:24;;;;;;;13.30;3.35;;;;;;;;;;517775;28;1232;-69
2023/03/13 01:24:39;;;;;;;13.43;3.40;;;;;;;;;;519643;28;1415;-69
2023/03/13 01:24:54;;;;;;;12.85;3.03;;;;;;;;;;520097;28;1165;-69
2023/03/13 01:25:10;;;;;;;10.97;2.90;;;;;;;;;;522010;28;1419;-70
2023/03/13 01:25:25;;;;;;;9.83;2.90;;;;;;;;;;520864;28;1275;-69
2023/03/13 01:25:40;;;;;;;11.85;2.72;;;;;;;;;;520331;28;1253;-69
2023/03/13 01:25:56;;;;;;;12.93;2.80;;;;;;;;;;519958;28;1262;-69
2023/03/13 01:26:11;;;;;;;12.55;2.85;;;;;;;;;;519879;28;1203;-69
2023/03/13 01:26:27;;;;;;;13.13;3.10;;;;;;;;;;521744;28;1697;-69
2023/03/13 01:26:42;;;;;;;13.60;3.28;;;;;;;;;;519501;28;1352;-69
2023/03/13 01:26:58;;;;;;;14.80;3.57;;;;;;;;;;520482;28;1229;-70
2023/03/13 01:27:13;;;;;;;14.23;3.63;;;;;;;;;;516651;28;1214;-69
2023/03/13 01:27:29;;;;;;;14.05;3.42;;;;;;;;;;519753;28;1349;-69
2023/03/13 01:27:44;;;;;;;12.47;3.23;;;;;;;;;;519511;28;1338;-69
2023/03/13 01:27:59;;;;;;;11.23;3.00;;;;;;;;;;516819;28;1221;-69
2023/03/13 01:28:15;;;;;;;10.10;2.70;;;;;;;;;;519553;28;1268;-69
2023/03/13 01:28:31;;;;;;;9.83;2.77;;;;;;;;;;518531;28;1062;-70
2023/03/13 01:28:46;;;;;;;10.73;3.00;;;;;;;;;;519620;28;1353;-69
2023/03/13 01:29:02;;;;;;;10.85;2.97;;;;;;;;;;519202;28;1207;-70
2023/03/13 01:29:18;;;;;;;10.45;2.97;;;;;;;;;;521273;28;1586;-69
2023/03/13 01:29:33;;;;;;;11.90;2.97;;;;;;;;;;521328;28;1291;-69
2023/03/13 01:29:48;;;;;;;13.00;3.03;;;;;;;;;;520644;28;1291;-69
2023/03/13 01:30:04;;;;;;;12.40;3.10;;;;;;;;;;521586;28;1345;-69
2023/03/13 01:30:19;;;;;;;13.30;3.08;;;;;;;;;;521573;28;1387;-69
2023/03/13 01:30:35;;;;;;;15.67;3.30;;;;;;;;;;521600;28;1285;-70
2023/03/13 01:30:51;;;;;;;14.57;3.37;;;;;;;;;;521562;28;1199;-69
2023/03/13 01:31:10;;;;;;;13.40;3.50;;;;;;;;;;518579;28;1307;-69
2023/03/13 01:31:28;;;;;;;12.38;3.30;;;;;;;;;;519096;28;1206;-69
2023/03/13 01:31:44;;;;;;;12.90;3.42;;;;;;;;;;521838;28;1227;-69
2023/03/13 01:31:59;;;;;;;12.53;3.13;;;;;;;;;;520100;28;1208;-70
2023/03/13 01:32:14;;;;;;;11.32;2.90;;;;;;;;;;517829;28;1467;-69
2023/03/13 01:32:32;;;;;;;13.23;3.27;;;;;;;;;;517134;28;1409;-69
2023/03/13 01:32:47;;;;;;;14.50;3.40;;;;;;;;;;519251;28;1220;-70
2023/03/13 01:33:03;;;;;;;13.57;3.30;;;;;;;;;;518830;28;1153;-71
2023/03/13 01:33:18;;;;;;;12.23;3.20;;;;;;;;;;519829;28;1173;-70
2023/03/13 01:33:33;;;;;;;10.13;2.70;;;;;;;;;;521719;28;1169;-69
2023/03/13 01:33:52;;;;;;;9.00;2.77;;;;;;;;;;521708;28;1319;-69
2023/03/13 01:34:09;;;;;;;10.25;2.83;;;;;;;;;;517377;28;1238;-70
2023/03/13 01:34:25;;;;;;;11.85;2.80;;;;;;;;;;520036;28;1444;-70
2023/03/13 01:34:40;;;;;;;13.53;3.20;;;;;;;;;;521144;28;1143;-70
2023/03/13 01:34:55;;;;;;;13.00;3.10;;;;;;;;;;518924;28;1234;-70
2023/03/13 01:35:11;;;;;;;11.10;2.87;;;;;;;;;;519129;28;1293;-69
2023/03/13 01:35:26;;;;;;;10.57;2.92;;;;;;;;;;516675;28;1160;-69
2023/03/13 01:35:42;;;;;;;10.50;2.93;;;;;;;;;;516987;28;1630;-69
2023/03/13 01:36:01;;;;;;;12.57;3.20;;;;;;;;;;517376;28;1316;-69
2023/03/13 01:36:17;;;;;;;12.82;3.00;;;;;;;;;;516332;28;1206;-70
2023/03/13 01:36:36;;;;;;;11.80;2.85;;;;;;;;;;514597;28;1202;-70
2023/03/13 01:36:52;;;;;;;10.90;2.92;;;;;;;;;;517569;28;1446;-70
2023/03/13 01:37:07;;;;;;;10.88;2.92;;;;;;;;;;520302;28;1124;-70
2023/03/13 01:37:22;;;;;;;11.03;2.77;;;;;;;;;;521496;28;1428;-69
2023/03/13 01:37:38;;;;;;;11.77;2.87;;;;;;;;;;520183;28;1158;-69
2023/03/13 01:37:53;;;;;;;11.70;3.07;;;;;;;;;;521334;28;1676;-69